createdAt,value
2017-07-16T00:00:14.277Z,76.30
2017-07-16T00:02:41.707Z,76.20
2017-07-16T00:05:09.132Z,76.10
2017-07-16T00:07:37.351Z,76.10
2017-07-16T00:10:04.783Z,76.10
2017-07-16T00:12:32.200Z,76.10
2017-07-16T00:14:59.632Z,75.70
2017-07-16T00:17:27.056Z,76.30
2017-07-16T00:19:54.536Z,75.90
2017-07-16T00:22:21.940Z,76.20
2017-07-16T00:24:49.363Z,76.30
2017-07-16T00:27:16.788Z,76.40
2017-07-16T00:29:44.221Z,76.00
2017-07-16T00:32:11.632Z,75.90
2017-07-16T00:34:39.077Z,75.80
2017-07-16T00:37:06.506Z,75.60
2017-07-16T00:39:33.935Z,76.30
2017-07-16T00:42:01.392Z,76.30
2017-07-16T00:44:28.832Z,76.20
2017-07-16T00:46:56.260Z,76.30
2017-07-16T00:49:23.696Z,76.50
2017-07-16T00:51:51.117Z,76.10
2017-07-16T00:54:18.557Z,76.50
2017-07-16T00:56:45.976Z,77.20
2017-07-16T00:59:13.429Z,76.40
2017-07-16T01:01:40.847Z,76.60
2017-07-16T01:04:08.285Z,76.80
2017-07-16T01:06:35.719Z,76.90
2017-07-16T01:09:03.179Z,77.00
2017-07-16T01:11:30.608Z,76.60
2017-07-16T01:13:58.047Z,76.40
2017-07-16T01:16:25.467Z,76.90
2017-07-16T01:18:52.900Z,77.10
2017-07-16T01:21:20.415Z,76.70
2017-07-16T01:23:48.596Z,77.00
2017-07-16T01:26:22.783Z,77.00
2017-07-16T01:28:50.200Z,76.90
2017-07-16T01:31:17.636Z,77.00
2017-07-16T01:33:45.073Z,76.80
2017-07-16T01:36:13.256Z,76.80
2017-07-16T01:38:40.692Z,76.70
2017-07-16T01:41:08.879Z,76.80
2017-07-16T01:43:37.078Z,76.00
2017-07-16T01:46:04.501Z,76.00
2017-07-16T01:48:32.704Z,76.40
2017-07-16T01:51:00.131Z,77.10
2017-07-16T01:53:27.565Z,76.60
2017-07-16T01:55:54.989Z,77.40
2017-07-16T01:58:22.416Z,77.20
2017-07-16T02:00:49.848Z,77.20
2017-07-16T02:03:17.280Z,77.40
2017-07-16T02:05:44.719Z,77.20
2017-07-16T02:08:12.148Z,77.30
2017-07-16T02:10:39.579Z,77.30
2017-07-16T02:13:06.998Z,77.10
2017-07-16T02:15:34.424Z,77.30
2017-07-16T02:18:01.860Z,77.40
2017-07-16T02:20:30.063Z,76.80
2017-07-16T02:22:57.467Z,76.80
2017-07-16T02:25:24.900Z,77.30
2017-07-16T02:27:52.324Z,77.00
2017-07-16T02:30:19.753Z,77.20
2017-07-16T02:32:47.175Z,77.20
2017-07-16T02:35:14.613Z,77.20
2017-07-16T02:37:42.027Z,76.90
2017-07-16T02:40:10.226Z,78.20
2017-07-16T02:42:37.659Z,78.10
2017-07-16T02:45:05.858Z,78.10
2017-07-16T02:47:33.280Z,78.10
2017-07-16T02:50:01.480Z,77.30
2017-07-16T02:52:28.910Z,77.30
2017-07-16T02:54:56.339Z,76.80
2017-07-16T02:57:23.764Z,77.00
2017-07-16T02:59:51.188Z,77.60
2017-07-16T03:02:18.616Z,77.30
2017-07-16T03:04:46.092Z,77.10
2017-07-16T03:07:13.528Z,77.10
2017-07-16T03:09:40.960Z,77.30
2017-07-16T03:12:08.398Z,77.40
2017-07-16T03:14:35.827Z,77.20
2017-07-16T03:17:03.263Z,76.60
2017-07-16T03:19:30.699Z,76.40
2017-07-16T03:21:58.140Z,76.80
2017-07-16T03:24:25.569Z,76.80
2017-07-16T03:26:52.993Z,76.80
2017-07-16T03:29:20.424Z,77.10
2017-07-16T03:31:47.852Z,77.10
2017-07-16T03:34:15.273Z,77.50
2017-07-16T03:36:42.705Z,77.70
2017-07-16T03:39:10.131Z,77.80
2017-07-16T03:41:37.556Z,78.20
2017-07-16T03:44:04.978Z,77.50
2017-07-16T03:46:32.410Z,77.30
2017-07-16T03:48:59.841Z,77.60
2017-07-16T03:51:27.269Z,77.80
2017-07-16T03:53:54.931Z,78.30
2017-07-16T03:56:23.137Z,76.60
2017-07-16T03:58:50.563Z,77.00
2017-07-16T04:01:17.981Z,77.40
2017-07-16T04:03:46.407Z,78.00
2017-07-16T04:06:14.587Z,77.80
2017-07-16T04:08:42.026Z,77.80
2017-07-16T04:11:09.449Z,77.60
2017-07-16T04:13:36.880Z,77.50
2017-07-16T04:16:04.309Z,78.40
2017-07-16T04:18:32.500Z,77.40
2017-07-16T04:20:59.934Z,77.40
2017-07-16T04:23:28.124Z,78.20
2017-07-16T04:25:55.548Z,77.40
2017-07-16T04:28:22.980Z,77.70
2017-07-16T04:30:50.404Z,78.20
2017-07-16T04:33:17.837Z,77.50
2017-07-16T04:35:46.032Z,77.40
2017-07-16T04:38:13.471Z,77.30
2017-07-16T04:40:41.670Z,77.10
2017-07-16T04:43:09.112Z,77.10
2017-07-16T04:45:36.545Z,76.10
2017-07-16T04:48:03.976Z,76.10
2017-07-16T04:50:31.412Z,76.10
2017-07-16T04:52:58.856Z,76.30
2017-07-16T04:55:26.282Z,76.40
2017-07-16T04:57:53.714Z,76.20
2017-07-16T05:00:21.144Z,75.20
2017-07-16T05:02:48.572Z,75.80
2017-07-16T05:05:16.000Z,76.70
2017-07-16T05:07:44.192Z,77.00
2017-07-16T05:10:12.405Z,75.90
2017-07-16T05:12:39.833Z,75.90
2017-07-16T05:15:07.279Z,75.10
2017-07-16T05:17:35.468Z,74.10
2017-07-16T05:20:02.891Z,74.10
2017-07-16T05:22:30.310Z,74.70
2017-07-16T05:24:57.745Z,73.80
2017-07-16T05:27:25.166Z,72.70
2017-07-16T05:29:53.357Z,73.40
2017-07-16T05:32:20.789Z,73.40
2017-07-16T05:34:48.220Z,74.10
2017-07-16T05:37:15.642Z,74.40
2017-07-16T05:39:43.063Z,75.90
2017-07-16T05:42:11.256Z,75.80
2017-07-16T05:44:38.694Z,75.70
2017-07-16T05:47:06.116Z,74.70
2017-07-16T05:49:33.543Z,75.60
2017-07-16T05:52:00.968Z,75.30
2017-07-16T05:54:28.396Z,75.80
2017-07-16T05:56:55.827Z,74.70
2017-07-16T05:59:23.260Z,72.60
2017-07-16T06:01:51.460Z,74.60
2017-07-16T06:04:18.884Z,74.40
2017-07-16T06:06:46.317Z,71.90
2017-07-16T06:09:13.738Z,72.10
2017-07-16T06:11:41.163Z,71.90
2017-07-16T06:14:08.594Z,74.90
2017-07-16T06:16:36.792Z,72.10
2017-07-16T06:19:04.222Z,72.10
2017-07-16T06:21:31.638Z,74.60
2017-07-16T06:23:59.059Z,72.80
2017-07-16T06:26:26.497Z,70.80
2017-07-16T06:28:54.687Z,70.00
2017-07-16T06:31:23.157Z,70.00
2017-07-16T06:33:51.627Z,70.00
2017-07-16T06:36:19.832Z,70.90
2017-07-16T06:38:47.261Z,70.80
2017-07-16T06:41:15.460Z,70.10
2017-07-16T06:43:42.885Z,70.10
2017-07-16T06:46:10.315Z,70.10
2017-07-16T06:48:37.741Z,69.50
2017-07-16T06:51:05.171Z,69.40
2017-07-16T06:53:33.355Z,67.90
2017-07-16T06:56:00.812Z,67.80
2017-07-16T06:58:28.241Z,68.60
2017-07-16T07:00:55.661Z,69.20
2017-07-16T07:03:23.113Z,69.20
2017-07-16T07:05:50.535Z,68.20
2017-07-16T07:08:17.973Z,67.50
2017-07-16T07:10:46.162Z,66.90
2017-07-16T07:13:14.356Z,67.60
2017-07-16T07:15:41.783Z,67.60
2017-07-16T07:18:09.989Z,65.60
2017-07-16T07:20:37.412Z,65.60
2017-07-16T07:23:05.608Z,67.40
2017-07-16T07:25:33.038Z,66.90
2017-07-16T07:28:00.460Z,67.10
2017-07-16T07:30:27.887Z,63.60
2017-07-16T07:32:55.370Z,62.90
2017-07-16T07:35:22.783Z,63.90
2017-07-16T07:37:50.224Z,65.50
2017-07-16T07:40:18.429Z,62.80
2017-07-16T07:42:45.870Z,62.80
2017-07-16T07:45:14.084Z,61.30
2017-07-16T07:47:42.520Z,61.20
2017-07-16T07:50:10.716Z,61.10
2017-07-16T07:52:38.155Z,61.00
2017-07-16T07:55:06.349Z,59.20
2017-07-16T07:57:33.823Z,59.10
2017-07-16T08:00:01.252Z,58.80
2017-07-16T08:02:28.766Z,60.10
2017-07-16T08:04:56.183Z,59.50
2017-07-16T08:07:25.653Z,58.70
2017-07-16T08:09:53.857Z,60.80
2017-07-16T08:12:22.300Z,60.70
2017-07-16T08:14:49.738Z,59.10
2017-07-16T08:17:23.016Z,62.10
2017-07-16T08:19:50.454Z,59.10
2017-07-16T08:22:17.873Z,59.00
2017-07-16T08:24:46.068Z,61.40
2017-07-16T08:27:13.492Z,61.30
2017-07-16T08:29:40.920Z,59.70
2017-07-16T08:32:08.361Z,59.10
2017-07-16T08:34:35.794Z,58.20
2017-07-16T08:37:03.216Z,58.90
2017-07-16T08:39:30.644Z,58.80
2017-07-16T08:41:58.072Z,59.10
2017-07-16T08:44:25.504Z,58.50
2017-07-16T08:46:53.725Z,58.70
2017-07-16T08:49:21.160Z,58.60
2017-07-16T08:51:48.598Z,59.50
2017-07-16T08:54:16.798Z,59.30
2017-07-16T08:56:44.221Z,58.70
2017-07-16T08:59:12.415Z,59.10
2017-07-16T09:01:39.924Z,59.10
2017-07-16T09:04:07.349Z,58.60
2017-07-16T09:06:34.792Z,63.20
2017-07-16T09:09:02.213Z,57.30
2017-07-16T09:11:29.649Z,57.60
2017-07-16T09:13:57.081Z,56.40
2017-07-16T09:16:24.507Z,54.60
2017-07-16T09:18:51.932Z,55.50
2017-07-16T09:21:19.365Z,56.00
2017-07-16T09:23:46.806Z,56.60
2017-07-16T09:26:14.233Z,54.10
2017-07-16T09:28:41.656Z,53.90
2017-07-16T09:31:09.085Z,54.20
2017-07-16T09:33:36.504Z,53.70
2017-07-16T09:36:03.931Z,57.10
2017-07-16T09:38:31.352Z,56.60
2017-07-16T09:40:58.800Z,58.10
2017-07-16T09:43:26.230Z,51.70
2017-07-16T09:45:53.665Z,51.50
2017-07-16T09:48:21.089Z,51.00
2017-07-16T09:50:48.521Z,51.10
2017-07-16T09:53:15.951Z,52.30
2017-07-16T09:55:43.381Z,57.80
2017-07-16T09:58:10.808Z,51.10
2017-07-16T10:00:38.247Z,50.20
2017-07-16T10:03:05.685Z,48.90
2017-07-16T10:05:34.098Z,51.40
2017-07-16T10:08:01.525Z,49.50
2017-07-16T10:10:29.084Z,51.00
2017-07-16T10:12:56.511Z,50.60
2017-07-16T10:15:24.705Z,49.50
2017-07-16T10:17:52.136Z,49.40
2017-07-16T10:20:20.333Z,52.20
2017-07-16T10:22:47.767Z,52.30
2017-07-16T10:25:15.194Z,48.30
2017-07-16T10:27:42.633Z,47.30
2017-07-16T10:30:10.063Z,47.70
2017-07-16T10:32:37.492Z,47.30
2017-07-16T10:35:04.912Z,50.10
2017-07-16T10:37:32.358Z,48.40
2017-07-16T10:39:59.780Z,48.20
2017-07-16T10:42:27.986Z,50.80
2017-07-16T10:44:55.495Z,50.70
2017-07-16T10:47:22.929Z,51.00
2017-07-16T10:49:50.364Z,49.00
2017-07-16T10:52:17.800Z,49.50
2017-07-16T10:54:45.238Z,48.10
2017-07-16T10:57:12.671Z,48.90
2017-07-16T10:59:40.136Z,49.20
2017-07-16T11:02:07.571Z,47.70
2017-07-16T11:04:35.002Z,50.60
2017-07-16T11:07:02.509Z,49.10
2017-07-16T11:09:30.701Z,52.00
2017-07-16T11:11:58.136Z,51.90
2017-07-16T11:14:25.560Z,50.80
2017-07-16T11:16:52.989Z,52.90
2017-07-16T11:19:20.415Z,52.10
2017-07-16T11:21:47.844Z,53.60
2017-07-16T11:24:15.266Z,52.40
2017-07-16T11:26:42.699Z,50.80
2017-07-16T11:29:10.141Z,52.10
2017-07-16T11:31:37.561Z,52.90
2017-07-16T11:34:05.001Z,50.30
2017-07-16T11:36:32.417Z,50.10
2017-07-16T11:38:59.857Z,51.90
2017-07-16T11:41:27.285Z,47.00
2017-07-16T11:43:54.792Z,53.00
2017-07-16T11:46:22.215Z,50.80
2017-07-16T11:48:49.647Z,52.00
2017-07-16T11:51:17.082Z,52.60
2017-07-16T11:53:44.503Z,52.70
2017-07-16T11:56:11.932Z,50.40
2017-07-16T11:58:39.520Z,52.00
2017-07-16T12:01:07.788Z,50.90
2017-07-16T12:03:43.293Z,50.80
2017-07-16T12:06:11.721Z,49.00
2017-07-16T12:08:39.922Z,46.80
2017-07-16T12:11:07.353Z,46.80
2017-07-16T12:13:35.540Z,49.80
2017-07-16T12:16:02.965Z,49.70
2017-07-16T12:18:30.392Z,49.40
2017-07-16T12:20:57.841Z,49.90
2017-07-16T12:23:25.247Z,52.20
2017-07-16T12:25:52.676Z,52.20
2017-07-16T12:28:20.099Z,54.20
2017-07-16T12:30:47.527Z,50.80
2017-07-16T12:33:15.715Z,52.70
2017-07-16T12:35:43.180Z,52.60
2017-07-16T12:38:10.610Z,55.00
2017-07-16T12:40:38.820Z,54.70
2017-07-16T12:43:06.248Z,54.60
2017-07-16T12:45:34.445Z,51.50
2017-07-16T12:48:01.868Z,51.60
2017-07-16T12:50:30.071Z,49.90
2017-07-16T12:52:57.496Z,50.50
2017-07-16T12:55:24.933Z,53.80
2017-07-16T12:57:52.366Z,55.20
2017-07-16T13:00:20.627Z,51.60
2017-07-16T13:02:48.072Z,49.60
2017-07-16T13:05:16.322Z,50.80
2017-07-16T13:07:43.733Z,50.20
2017-07-16T13:10:11.153Z,51.90
2017-07-16T13:12:38.588Z,49.80
2017-07-16T13:15:06.027Z,53.30
2017-07-16T13:17:33.451Z,49.90
2017-07-16T13:20:00.876Z,53.30
2017-07-16T13:22:29.087Z,51.00
2017-07-16T13:24:56.523Z,51.00
2017-07-16T13:27:23.973Z,50.80
2017-07-16T13:29:51.397Z,50.90
2017-07-16T13:32:18.833Z,50.90
2017-07-16T13:34:46.270Z,51.20
2017-07-16T13:37:17.155Z,55.10
2017-07-16T13:39:44.579Z,50.50
2017-07-16T13:42:15.472Z,49.40
2017-07-16T13:44:42.892Z,50.60
2017-07-16T13:47:10.328Z,49.40
2017-07-16T13:49:39.815Z,49.90
2017-07-16T13:52:07.234Z,52.30
2017-07-16T13:54:34.682Z,50.10
2017-07-16T13:57:02.880Z,52.40
2017-07-16T13:59:30.309Z,51.90
2017-07-16T14:01:57.728Z,51.00
2017-07-16T14:04:25.165Z,55.30
2017-07-16T14:06:52.592Z,50.50
2017-07-16T14:09:20.784Z,49.20
2017-07-16T14:11:48.212Z,49.20
2017-07-16T14:14:15.629Z,52.50
2017-07-16T14:16:43.059Z,51.50
2017-07-16T14:19:10.493Z,53.70
2017-07-16T14:21:38.683Z,52.70
2017-07-16T14:24:06.125Z,52.60
2017-07-16T14:26:34.317Z,50.80
2017-07-16T14:29:01.749Z,50.70
2017-07-16T14:31:29.949Z,53.50
2017-07-16T14:33:58.357Z,53.10
2017-07-16T14:36:25.766Z,52.00
2017-07-16T14:38:53.975Z,54.80
2017-07-16T14:41:21.490Z,54.70
2017-07-16T14:43:50.272Z,52.90
2017-07-16T14:46:17.732Z,52.90
2017-07-16T14:48:45.161Z,50.20
2017-07-16T14:51:12.585Z,54.10
2017-07-16T14:53:40.033Z,53.60
2017-07-16T14:56:07.456Z,52.20
2017-07-16T14:58:35.669Z,53.40
2017-07-16T15:01:03.127Z,52.90
2017-07-16T15:03:30.605Z,54.80
2017-07-16T15:05:57.995Z,54.10
2017-07-16T15:08:25.470Z,56.20
2017-07-16T15:10:52.970Z,54.90
2017-07-16T15:13:20.381Z,52.80
2017-07-16T15:15:48.576Z,54.80
2017-07-16T15:18:16.004Z,54.70
2017-07-16T15:20:43.481Z,51.50
2017-07-16T15:23:10.859Z,53.40
2017-07-16T15:25:38.291Z,53.00
2017-07-16T15:28:06.484Z,53.80
2017-07-16T15:30:33.920Z,53.80
2017-07-16T15:33:01.340Z,54.20
2017-07-16T15:35:28.771Z,54.40
2017-07-16T15:37:56.209Z,51.80
2017-07-16T15:40:23.642Z,55.40
2017-07-16T15:42:51.064Z,52.70
2017-07-16T15:45:18.501Z,55.50
2017-07-16T15:47:45.929Z,54.00
2017-07-16T15:50:13.369Z,54.30
2017-07-16T15:52:40.797Z,55.30
2017-07-16T15:55:08.240Z,55.00
2017-07-16T15:57:35.668Z,52.50
2017-07-16T16:00:03.205Z,55.30
2017-07-16T16:02:30.618Z,54.00
2017-07-16T16:04:58.056Z,52.60
2017-07-16T16:07:25.492Z,52.90
2017-07-16T16:09:52.934Z,55.00
2017-07-16T16:12:21.123Z,55.80
2017-07-16T16:14:48.572Z,55.70
2017-07-16T16:17:16.005Z,56.20
2017-07-16T16:19:43.433Z,54.70
2017-07-16T16:22:10.883Z,54.60
2017-07-16T16:24:38.378Z,53.80
2017-07-16T16:27:05.813Z,53.60
2017-07-16T16:29:33.246Z,53.30
2017-07-16T16:32:00.676Z,56.20
2017-07-16T16:34:28.100Z,56.10
2017-07-16T16:36:56.297Z,56.50
2017-07-16T16:39:23.723Z,56.40
2017-07-16T16:41:51.183Z,57.10
2017-07-16T16:44:18.593Z,53.30
2017-07-16T16:46:46.016Z,58.20
2017-07-16T16:49:13.470Z,56.80
2017-07-16T16:51:40.901Z,56.60
2017-07-16T16:54:08.324Z,57.40
2017-07-16T16:56:35.757Z,57.60
2017-07-16T16:59:03.195Z,56.70
2017-07-16T17:01:31.032Z,56.20
2017-07-16T17:03:58.492Z,57.20
2017-07-16T17:06:25.912Z,58.10
2017-07-16T17:08:53.340Z,58.70
2017-07-16T17:11:20.772Z,57.40
2017-07-16T17:13:48.964Z,56.70
2017-07-16T17:16:16.402Z,56.60
2017-07-16T17:18:43.822Z,56.70
2017-07-16T17:21:11.249Z,57.50
2017-07-16T17:23:38.685Z,56.30
2017-07-16T17:26:06.109Z,56.80
2017-07-16T17:28:33.544Z,56.60
2017-07-16T17:31:00.977Z,56.70
2017-07-16T17:33:28.408Z,56.80
2017-07-16T17:35:56.603Z,58.80
2017-07-16T17:38:24.028Z,58.70
2017-07-16T17:40:51.453Z,58.50
2017-07-16T17:43:18.885Z,56.40
2017-07-16T17:45:46.312Z,57.10
2017-07-16T17:48:13.744Z,57.80
2017-07-16T17:50:41.189Z,58.50
2017-07-16T17:53:11.948Z,58.10
2017-07-16T17:55:40.136Z,58.20
2017-07-16T17:58:07.577Z,58.20
2017-07-16T18:03:25.511Z,57.90
2017-07-16T18:05:53.001Z,59.80
2017-07-16T18:08:20.450Z,59.30
2017-07-16T18:10:47.920Z,60.50
2017-07-16T18:13:16.118Z,59.90
2017-07-16T18:15:43.551Z,59.80
2017-07-16T18:18:10.993Z,59.70
2017-07-16T18:20:38.427Z,60.70
2017-07-16T18:23:05.860Z,59.60
2017-07-16T18:25:33.293Z,60.10
2017-07-16T18:28:00.824Z,61.60
2017-07-16T18:30:28.252Z,61.70
2017-07-16T18:32:55.710Z,62.20
2017-07-16T18:35:23.144Z,62.00
2017-07-16T18:37:50.584Z,62.10
2017-07-16T18:40:18.019Z,62.50
2017-07-16T18:42:46.241Z,62.10
2017-07-16T18:45:13.677Z,62.00
2017-07-16T18:47:41.104Z,64.20
2017-07-16T18:50:08.550Z,63.70
2017-07-16T18:52:36.026Z,64.40
2017-07-16T18:55:03.460Z,62.30
2017-07-16T18:57:32.883Z,62.30
2017-07-16T19:00:00.332Z,63.70
2017-07-16T19:02:28.526Z,64.30
2017-07-16T19:04:55.966Z,64.00
2017-07-16T19:07:23.429Z,64.00
2017-07-16T19:09:51.639Z,65.50
2017-07-16T19:12:19.078Z,65.60
2017-07-16T19:14:46.519Z,65.10
2017-07-16T19:17:14.727Z,67.40
2017-07-16T19:19:43.158Z,67.40
2017-07-16T19:22:10.596Z,68.80
2017-07-16T19:24:38.024Z,68.40
2017-07-16T19:27:05.482Z,66.70
2017-07-16T19:29:32.905Z,67.50
2017-07-16T19:32:00.340Z,68.60
2017-07-16T19:34:27.793Z,68.80
2017-07-16T19:36:55.231Z,67.20
2017-07-16T19:39:22.659Z,66.50
2017-07-16T19:41:50.099Z,66.30
2017-07-16T19:44:17.520Z,67.40
2017-07-16T19:46:45.741Z,68.70
2017-07-16T19:49:17.150Z,68.00
2017-07-16T19:51:45.362Z,69.30
2017-07-16T19:54:13.806Z,69.30
2017-07-16T19:56:42.017Z,68.50
2017-07-16T19:59:09.450Z,68.30
2017-07-16T20:01:37.644Z,67.80
2017-07-16T20:04:05.117Z,67.80
2017-07-16T20:06:32.529Z,67.60
2017-07-16T20:08:59.952Z,67.90
2017-07-16T20:11:27.389Z,68.00
2017-07-16T20:13:54.828Z,68.00
2017-07-16T20:16:22.264Z,70.30
2017-07-16T20:18:50.480Z,70.30
2017-07-16T20:21:17.906Z,70.20
2017-07-16T20:23:45.351Z,70.60
2017-07-16T20:26:12.784Z,70.50
2017-07-16T20:28:40.209Z,71.10
2017-07-16T20:31:07.702Z,70.20
2017-07-16T20:33:35.131Z,70.90
2017-07-16T20:36:02.569Z,71.50
2017-07-16T20:38:30.050Z,71.60
2017-07-16T20:40:57.488Z,71.60
2017-07-16T20:43:24.988Z,72.00
2017-07-16T20:45:52.406Z,71.80
2017-07-16T20:48:19.849Z,71.80
2017-07-16T20:50:47.275Z,71.80
2017-07-16T20:53:15.488Z,71.60
2017-07-16T20:55:43.746Z,71.60
2017-07-16T20:58:11.223Z,71.80
2017-07-16T21:00:38.654Z,71.90
2017-07-16T21:03:06.090Z,73.30
2017-07-16T21:05:33.518Z,73.50
2017-07-16T21:08:00.949Z,73.90
2017-07-16T21:10:28.391Z,74.00
2017-07-16T21:12:55.925Z,74.10
2017-07-16T21:15:24.134Z,73.70
2017-07-16T21:17:51.572Z,73.70
2017-07-16T21:20:19.006Z,74.10
2017-07-16T21:22:47.208Z,74.50
2017-07-16T21:25:15.221Z,74.10
2017-07-16T21:27:42.829Z,73.60
2017-07-16T21:30:10.259Z,74.30
2017-07-16T21:32:40.469Z,75.50
2017-07-16T21:35:07.902Z,74.90
2017-07-16T21:37:35.344Z,74.80
2017-07-16T21:40:03.069Z,74.60
2017-07-16T21:42:31.747Z,75.00
2017-07-16T21:44:59.177Z,75.00
2017-07-16T21:47:26.608Z,74.90
2017-07-16T21:49:54.050Z,74.80
2017-07-16T21:52:21.481Z,74.90
2017-07-16T21:54:49.686Z,75.50
2017-07-16T21:57:17.115Z,75.50
2017-07-16T21:59:44.566Z,77.10
2017-07-16T22:02:12.757Z,76.20
2017-07-16T22:04:40.195Z,76.10
2017-07-16T22:07:08.396Z,76.60
2017-07-16T22:09:35.827Z,76.60
2017-07-16T22:12:04.103Z,76.40
2017-07-16T22:14:32.310Z,77.90
2017-07-16T22:16:59.739Z,77.80
2017-07-16T22:19:27.938Z,78.70
2017-07-16T22:21:55.367Z,78.40
2017-07-16T22:24:23.568Z,78.60
2017-07-16T22:26:50.998Z,78.60
2017-07-16T22:29:19.224Z,79.00
2017-07-16T22:31:46.734Z,79.00
2017-07-16T22:37:07.461Z,78.70
2017-07-16T22:39:34.902Z,77.90
2017-07-16T22:42:02.325Z,78.00
2017-07-16T22:44:29.761Z,78.50
2017-07-16T22:46:57.189Z,78.70
2017-07-16T22:49:25.387Z,78.60
2017-07-16T22:51:52.813Z,78.50
2017-07-16T22:54:20.257Z,78.50
2017-07-16T22:56:47.685Z,78.10
2017-07-16T22:59:15.124Z,78.60
2017-07-16T23:01:42.557Z,78.30
2017-07-16T23:04:09.985Z,78.20
2017-07-16T23:06:38.190Z,79.10
2017-07-16T23:09:05.613Z,78.40
2017-07-16T23:11:33.049Z,78.50
2017-07-16T23:14:00.480Z,78.80
2017-07-16T23:16:27.918Z,78.80
2017-07-16T23:18:55.341Z,78.30
2017-07-16T23:21:22.774Z,78.40
2017-07-16T23:23:50.201Z,78.40
2017-07-16T23:26:17.638Z,79.10
2017-07-16T23:28:45.068Z,78.60
2017-07-16T23:31:13.277Z,78.70
2017-07-16T23:33:40.720Z,78.20
2017-07-16T23:36:08.154Z,78.40
2017-07-16T23:38:35.582Z,78.60
2017-07-16T23:41:03.021Z,78.60
2017-07-16T23:43:30.453Z,78.40
2017-07-16T23:45:57.890Z,78.50
2017-07-16T23:48:25.321Z,78.60
2017-07-16T23:50:52.752Z,78.60
2017-07-16T23:53:20.199Z,78.70
2017-07-16T23:55:47.640Z,78.40
2017-07-16T23:58:15.075Z,78.50
